sensor_id;sensor_type;location;lat;lon;timestamp;P1;P2;P0
74086;PMS7003;62445;48.406;-4.518;2023-06-10T00:01:19;15.00;15.00;11.25
74086;PMS7003;62445;48.406;-4.518;2023-06-10T00:03:44;14.75;14.75;10.25
74086;PMS7003;62445;48.406;-4.518;2023-06-10T00:06:09;15.50;14.50;10.25
74086;PMS7003;62445;48.406;-4.518;2023-06-10T00:08:35;18.50;15.75;10.50
74086;PMS7003;62445;48.406;-4.518;2023-06-10T00:11:02;12.75;11.50;8.50
74086;PMS7003;62445;48.406;-4.518;2023-06-10T00:13:28;15.25;12.50;10.50
74086;PMS7003;62445;48.406;-4.518;2023-06-10T00:15:53;13.00;10.75;8.75
74086;PMS7003;62445;48.406;-4.518;2023-06-10T00:18:18;14.75;13.75;9.75
74086;PMS7003;62445;48.406;-4.518;2023-06-10T00:20:46;13.75;12.50;9.75
74086;PMS7003;62445;48.406;-4.518;2023-06-10T00:23:13;14.75;13.75;10.00
74086;PMS7003;62445;48.406;-4.518;2023-06-10T00:25:39;12.00;11.00;9.50
74086;PMS7003;62445;48.406;-4.518;2023-06-10T00:28:05;14.25;12.50;9.00
74086;PMS7003;62445;48.406;-4.518;2023-06-10T00:30:30;12.00;11.00;8.00
74086;PMS7003;62445;48.406;-4.518;2023-06-10T00:32:56;16.00;14.50;9.75
74086;PMS7003;62445;48.406;-4.518;2023-06-10T00:35:21;12.00;12.00;8.75
74086;PMS7003;62445;48.406;-4.518;2023-06-10T00:37:47;12.50;12.50;10.75
74086;PMS7003;62445;48.406;-4.518;2023-06-10T00:40:12;12.75;12.75;10.50
74086;PMS7003;62445;48.406;-4.518;2023-06-10T00:42:38;12.50;12.00;9.00
74086;PMS7003;62445;48.406;-4.518;2023-06-10T00:45:03;12.50;12.50;10.50
74086;PMS7003;62445;48.406;-4.518;2023-06-10T00:47:30;12.75;12.50;10.50
74086;PMS7003;62445;48.406;-4.518;2023-06-10T00:49:56;11.75;11.25;9.25
74086;PMS7003;62445;48.406;-4.518;2023-06-10T00:52:22;14.25;14.25;10.25
74086;PMS7003;62445;48.406;-4.518;2023-06-10T00:54:49;16.25;15.25;10.00
74086;PMS7003;62445;48.406;-4.518;2023-06-10T00:57:15;13.25;12.25;10.00
74086;PMS7003;62445;48.406;-4.518;2023-06-10T00:59:41;13.75;13.00;9.25
74086;PMS7003;62445;48.406;-4.518;2023-06-10T01:02:11;11.50;11.50;9.00
74086;PMS7003;62445;48.406;-4.518;2023-06-10T01:04:37;15.75;14.00;10.00
74086;PMS7003;62445;48.406;-4.518;2023-06-10T01:13:00;12.00;11.00;9.75
74086;PMS7003;62445;48.406;-4.518;2023-06-10T01:15:29;12.50;12.25;9.50
74086;PMS7003;62445;48.406;-4.518;2023-06-10T01:17:59;14.25;12.75;9.50
74086;PMS7003;62445;48.406;-4.518;2023-06-10T01:20:36;14.50;14.50;10.25
74086;PMS7003;62445;48.406;-4.518;2023-06-10T01:23:05;14.25;11.50;9.50
74086;PMS7003;62445;48.406;-4.518;2023-06-10T01:25:31;14.25;13.25;11.00
74086;PMS7003;62445;48.406;-4.518;2023-06-10T01:33:51;16.25;15.25;10.75
74086;PMS7003;62445;48.406;-4.518;2023-06-10T01:36:18;13.00;12.00;9.25
74086;PMS7003;62445;48.406;-4.518;2023-06-10T01:38:47;13.25;13.25;9.50
74086;PMS7003;62445;48.406;-4.518;2023-06-10T01:41:15;14.50;14.25;10.50
74086;PMS7003;62445;48.406;-4.518;2023-06-10T01:43:42;11.50;11.50;7.75
74086;PMS7003;62445;48.406;-4.518;2023-06-10T01:46:08;12.00;11.50;9.25
74086;PMS7003;62445;48.406;-4.518;2023-06-10T01:48:34;15.00;13.50;10.00
74086;PMS7003;62445;48.406;-4.518;2023-06-10T01:51:00;13.25;12.50;10.50
74086;PMS7003;62445;48.406;-4.518;2023-06-10T01:53:25;16.00;12.50;9.75
74086;PMS7003;62445;48.406;-4.518;2023-06-10T01:55:51;12.00;12.00;8.25
74086;PMS7003;62445;48.406;-4.518;2023-06-10T01:58:16;17.75;15.25;11.25
74086;PMS7003;62445;48.406;-4.518;2023-06-10T02:00:42;14.75;11.75;9.25
74086;PMS7003;62445;48.406;-4.518;2023-06-10T02:03:07;15.25;13.75;11.50
74086;PMS7003;62445;48.406;-4.518;2023-06-10T02:05:33;11.75;11.50;10.00
74086;PMS7003;62445;48.406;-4.518;2023-06-10T02:07:58;13.50;10.00;8.00
74086;PMS7003;62445;48.406;-4.518;2023-06-10T02:10:24;14.75;12.75;9.75
74086;PMS7003;62445;48.406;-4.518;2023-06-10T02:12:50;14.50;14.25;9.50
74086;PMS7003;62445;48.406;-4.518;2023-06-10T02:15:15;12.00;11.00;9.00
74086;PMS7003;62445;48.406;-4.518;2023-06-10T02:17:40;19.50;13.50;10.25
74086;PMS7003;62445;48.406;-4.518;2023-06-10T02:20:06;13.25;11.25;9.00
74086;PMS7003;62445;48.406;-4.518;2023-06-10T02:22:33;10.50;10.50;8.00
74086;PMS7003;62445;48.406;-4.518;2023-06-10T02:24:59;10.25;9.50;8.00
74086;PMS7003;62445;48.406;-4.518;2023-06-10T02:27:24;13.25;13.25;10.25
74086;PMS7003;62445;48.406;-4.518;2023-06-10T02:29:50;12.25;12.25;8.25
74086;PMS7003;62445;48.406;-4.518;2023-06-10T02:32:15;15.75;12.25;7.50
74086;PMS7003;62445;48.406;-4.518;2023-06-10T02:34:41;13.75;12.25;7.00
74086;PMS7003;62445;48.406;-4.518;2023-06-10T02:37:08;13.50;12.50;9.00
74086;PMS7003;62445;48.406;-4.518;2023-06-10T02:39:34;14.00;14.00;8.00
74086;PMS7003;62445;48.406;-4.518;2023-06-10T02:41:59;10.00;10.00;8.25
74086;PMS7003;62445;48.406;-4.518;2023-06-10T02:44:25;10.75;10.25;7.25
74086;PMS7003;62445;48.406;-4.518;2023-06-10T02:46:50;12.25;12.25;9.50
74086;PMS7003;62445;48.406;-4.518;2023-06-10T02:49:16;11.75;11.75;8.75
74086;PMS7003;62445;48.406;-4.518;2023-06-10T02:51:41;11.50;11.50;7.00
74086;PMS7003;62445;48.406;-4.518;2023-06-10T02:54:07;11.00;10.25;8.00
74086;PMS7003;62445;48.406;-4.518;2023-06-10T02:56:32;14.00;10.00;7.00
74086;PMS7003;62445;48.406;-4.518;2023-06-10T02:58:58;11.25;10.75;7.00
74086;PMS7003;62445;48.406;-4.518;2023-06-10T03:01:24;9.75;9.75;8.00
74086;PMS7003;62445;48.406;-4.518;2023-06-10T03:03:49;11.00;9.75;8.75
74086;PMS7003;62445;48.406;-4.518;2023-06-10T03:06:15;11.00;11.00;7.25
74086;PMS7003;62445;48.406;-4.518;2023-06-10T03:08:41;10.50;9.00;7.00
74086;PMS7003;62445;48.406;-4.518;2023-06-10T03:11:07;11.25;9.75;7.25
74086;PMS7003;62445;48.406;-4.518;2023-06-10T03:13:33;9.75;9.75;7.00
74086;PMS7003;62445;48.406;-4.518;2023-06-10T03:15:59;12.00;9.25;7.00
74086;PMS7003;62445;48.406;-4.518;2023-06-10T03:18:27;11.25;11.00;7.25
74086;PMS7003;62445;48.406;-4.518;2023-06-10T03:20:53;10.75;10.50;8.00
74086;PMS7003;62445;48.406;-4.518;2023-06-10T03:23:20;11.75;10.50;7.00
74086;PMS7003;62445;48.406;-4.518;2023-06-10T03:25:45;7.50;7.50;5.50
74086;PMS7003;62445;48.406;-4.518;2023-06-10T03:28:11;9.50;9.00;6.25
74086;PMS7003;62445;48.406;-4.518;2023-06-10T03:30:36;13.50;11.00;8.75
74086;PMS7003;62445;48.406;-4.518;2023-06-10T03:33:02;11.25;10.50;8.00
74086;PMS7003;62445;48.406;-4.518;2023-06-10T03:35:27;11.25;11.25;8.75
74086;PMS7003;62445;48.406;-4.518;2023-06-10T03:37:53;10.25;10.25;7.75
74086;PMS7003;62445;48.406;-4.518;2023-06-10T03:40:18;9.50;9.50;6.75
74086;PMS7003;62445;48.406;-4.518;2023-06-10T03:42:43;8.25;4.50;3.75
74086;PMS7003;62445;48.406;-4.518;2023-06-10T03:45:09;12.25;10.50;7.75
74086;PMS7003;62445;48.406;-4.518;2023-06-10T03:47:36;12.50;12.50;8.50
74086;PMS7003;62445;48.406;-4.518;2023-06-10T03:50:05;11.00;10.00;8.00
74086;PMS7003;62445;48.406;-4.518;2023-06-10T03:52:33;11.75;10.25;7.25
74086;PMS7003;62445;48.406;-4.518;2023-06-10T03:54:58;10.50;10.50;7.50
74086;PMS7003;62445;48.406;-4.518;2023-06-10T03:57:24;10.25;8.75;7.00
74086;PMS7003;62445;48.406;-4.518;2023-06-10T03:59:50;9.75;9.75;7.75
74086;PMS7003;62445;48.406;-4.518;2023-06-10T04:02:16;9.75;9.25;7.00
74086;PMS7003;62445;48.406;-4.518;2023-06-10T04:04:41;7.00;7.00;5.75
74086;PMS7003;62445;48.406;-4.518;2023-06-10T04:07:07;9.00;9.00;7.25
74086;PMS7003;62445;48.406;-4.518;2023-06-10T04:09:34;9.75;9.75;7.75
74086;PMS7003;62445;48.406;-4.518;2023-06-10T04:12:00;6.00;6.00;5.75
74086;PMS7003;62445;48.406;-4.518;2023-06-10T04:14:26;10.00;9.50;7.25
74086;PMS7003;62445;48.406;-4.518;2023-06-10T04:16:52;8.50;8.50;6.25
74086;PMS7003;62445;48.406;-4.518;2023-06-10T04:19:17;8.00;8.00;7.00
74086;PMS7003;62445;48.406;-4.518;2023-06-10T04:21:42;8.75;8.50;6.50
74086;PMS7003;62445;48.406;-4.518;2023-06-10T04:24:08;11.25;11.25;6.75
74086;PMS7003;62445;48.406;-4.518;2023-06-10T04:26:35;10.75;10.75;7.00
74086;PMS7003;62445;48.406;-4.518;2023-06-10T04:29:00;10.75;9.00;6.75
74086;PMS7003;62445;48.406;-4.518;2023-06-10T04:31:26;7.50;7.50;6.50
74086;PMS7003;62445;48.406;-4.518;2023-06-10T04:33:51;11.25;9.75;7.00
74086;PMS7003;62445;48.406;-4.518;2023-06-10T04:36:17;4.25;4.25;4.00
74086;PMS7003;62445;48.406;-4.518;2023-06-10T04:38:42;7.75;7.75;7.00
74086;PMS7003;62445;48.406;-4.518;2023-06-10T04:41:08;8.75;8.50;6.75
74086;PMS7003;62445;48.406;-4.518;2023-06-10T04:43:33;12.25;9.00;7.00
74086;PMS7003;62445;48.406;-4.518;2023-06-10T04:45:59;9.75;7.00;6.00
74086;PMS7003;62445;48.406;-4.518;2023-06-10T04:48:24;8.50;7.75;6.00
74086;PMS7003;62445;48.406;-4.518;2023-06-10T04:50:50;11.00;9.00;7.00
74086;PMS7003;62445;48.406;-4.518;2023-06-10T04:53:15;10.50;9.25;7.75
74086;PMS7003;62445;48.406;-4.518;2023-06-10T04:55:41;7.25;7.25;3.75
74086;PMS7003;62445;48.406;-4.518;2023-06-10T04:58:07;12.00;10.50;9.25
74086;PMS7003;62445;48.406;-4.518;2023-06-10T05:00:32;10.50;8.25;6.75
74086;PMS7003;62445;48.406;-4.518;2023-06-10T05:02:58;11.00;10.50;7.75
74086;PMS7003;62445;48.406;-4.518;2023-06-10T05:05:23;7.75;6.00;5.25
74086;PMS7003;62445;48.406;-4.518;2023-06-10T05:07:48;6.75;5.00;3.50
74086;PMS7003;62445;48.406;-4.518;2023-06-10T05:10:14;9.50;9.50;7.00
74086;PMS7003;62445;48.406;-4.518;2023-06-10T05:12:40;10.00;8.50;6.75
74086;PMS7003;62445;48.406;-4.518;2023-06-10T05:15:06;9.25;9.25;7.75
74086;PMS7003;62445;48.406;-4.518;2023-06-10T05:17:32;10.25;10.25;7.25
74086;PMS7003;62445;48.406;-4.518;2023-06-10T05:19:57;8.25;7.00;5.50
74086;PMS7003;62445;48.406;-4.518;2023-06-10T05:22:23;8.00;8.00;6.25
74086;PMS7003;62445;48.406;-4.518;2023-06-10T05:24:52;10.00;9.00;7.00
74086;PMS7003;62445;48.406;-4.518;2023-06-10T05:27:18;8.75;8.50;7.50
74086;PMS7003;62445;48.406;-4.518;2023-06-10T05:29:43;4.75;3.75;3.00
74086;PMS7003;62445;48.406;-4.518;2023-06-10T05:32:10;10.25;8.00;6.50
74086;PMS7003;62445;48.406;-4.518;2023-06-10T05:34:36;8.00;8.00;6.00
74086;PMS7003;62445;48.406;-4.518;2023-06-10T05:37:01;7.25;7.25;5.50
74086;PMS7003;62445;48.406;-4.518;2023-06-10T05:39:27;8.00;8.00;6.00
74086;PMS7003;62445;48.406;-4.518;2023-06-10T05:41:52;8.50;8.50;5.75
74086;PMS7003;62445;48.406;-4.518;2023-06-10T05:44:18;8.25;8.25;6.25
74086;PMS7003;62445;48.406;-4.518;2023-06-10T05:46:43;4.00;4.00;3.00
74086;PMS7003;62445;48.406;-4.518;2023-06-10T05:49:08;9.25;7.00;5.00
74086;PMS7003;62445;48.406;-4.518;2023-06-10T05:51:34;6.75;6.75;5.25
74086;PMS7003;62445;48.406;-4.518;2023-06-10T05:53:59;6.75;6.75;5.75
74086;PMS7003;62445;48.406;-4.518;2023-06-10T05:56:25;6.00;6.00;5.25
74086;PMS7003;62445;48.406;-4.518;2023-06-10T05:58:50;8.25;8.25;5.50
74086;PMS7003;62445;48.406;-4.518;2023-06-10T06:01:16;7.00;6.25;5.00
74086;PMS7003;62445;48.406;-4.518;2023-06-10T06:03:42;6.50;6.50;6.00
74086;PMS7003;62445;48.406;-4.518;2023-06-10T06:06:07;6.25;6.25;5.00
74086;PMS7003;62445;48.406;-4.518;2023-06-10T06:08:33;8.75;7.00;6.00
74086;PMS7003;62445;48.406;-4.518;2023-06-10T06:10:58;7.00;7.00;6.00
74086;PMS7003;62445;48.406;-4.518;2023-06-10T06:13:23;9.50;8.00;6.50
74086;PMS7003;62445;48.406;-4.518;2023-06-10T06:15:49;7.75;7.75;6.00
74086;PMS7003;62445;48.406;-4.518;2023-06-10T06:18:15;7.75;7.75;6.00
74086;PMS7003;62445;48.406;-4.518;2023-06-10T06:20:40;7.50;7.50;5.25
74086;PMS7003;62445;48.406;-4.518;2023-06-10T06:23:06;7.50;7.50;5.25
74086;PMS7003;62445;48.406;-4.518;2023-06-10T06:25:33;7.75;7.75;5.00
74086;PMS7003;62445;48.406;-4.518;2023-06-10T06:28:00;6.50;6.50;5.00
74086;PMS7003;62445;48.406;-4.518;2023-06-10T06:30:26;9.50;6.75;5.00
74086;PMS7003;62445;48.406;-4.518;2023-06-10T06:32:51;7.75;6.50;5.50
74086;PMS7003;62445;48.406;-4.518;2023-06-10T06:35:16;5.75;5.75;5.00
74086;PMS7003;62445;48.406;-4.518;2023-06-10T06:37:42;8.25;8.00;6.25
74086;PMS7003;62445;48.406;-4.518;2023-06-10T06:40:07;7.50;7.50;5.00
74086;PMS7003;62445;48.406;-4.518;2023-06-10T06:42:33;6.25;6.25;5.25
74086;PMS7003;62445;48.406;-4.518;2023-06-10T06:45:01;7.75;6.00;5.75
74086;PMS7003;62445;48.406;-4.518;2023-06-10T06:47:27;6.00;6.00;5.25
74086;PMS7003;62445;48.406;-4.518;2023-06-10T06:49:52;7.00;6.75;5.50
74086;PMS7003;62445;48.406;-4.518;2023-06-10T06:52:18;5.75;5.25;4.50
74086;PMS7003;62445;48.406;-4.518;2023-06-10T06:54:44;7.75;7.75;6.00
74086;PMS7003;62445;48.406;-4.518;2023-06-10T06:57:09;7.00;6.25;5.25
74086;PMS7003;62445;48.406;-4.518;2023-06-10T06:59:35;7.00;6.00;5.00
74086;PMS7003;62445;48.406;-4.518;2023-06-10T07:02:02;5.00;5.00;4.75
74086;PMS7003;62445;48.406;-4.518;2023-06-10T07:04:28;6.25;6.25;5.00
74086;PMS7003;62445;48.406;-4.518;2023-06-10T07:06:54;6.25;5.25;4.75
74086;PMS7003;62445;48.406;-4.518;2023-06-10T07:09:19;5.50;5.50;4.75
74086;PMS7003;62445;48.406;-4.518;2023-06-10T07:11:45;8.00;5.00;4.00
74086;PMS7003;62445;48.406;-4.518;2023-06-10T07:14:10;5.00;5.00;3.75
74086;PMS7003;62445;48.406;-4.518;2023-06-10T07:16:36;6.00;5.25;4.25
74086;PMS7003;62445;48.406;-4.518;2023-06-10T07:19:01;7.00;5.50;4.25
74086;PMS7003;62445;48.406;-4.518;2023-06-10T07:21:27;7.00;5.75;4.75
74086;PMS7003;62445;48.406;-4.518;2023-06-10T07:23:53;6.25;6.25;5.00
74086;PMS7003;62445;48.406;-4.518;2023-06-10T07:26:19;5.75;5.75;4.25
74086;PMS7003;62445;48.406;-4.518;2023-06-10T07:28:44;4.25;4.00;3.00
74086;PMS7003;62445;48.406;-4.518;2023-06-10T07:31:10;6.75;6.00;5.00
74086;PMS7003;62445;48.406;-4.518;2023-06-10T07:33:37;6.00;6.00;4.75
74086;PMS7003;62445;48.406;-4.518;2023-06-10T07:36:04;6.25;5.00;5.00
74086;PMS7003;62445;48.406;-4.518;2023-06-10T07:38:30;6.00;4.50;3.00
74086;PMS7003;62445;48.406;-4.518;2023-06-10T07:40:55;6.75;5.25;3.75
74086;PMS7003;62445;48.406;-4.518;2023-06-10T07:43:20;5.75;5.75;5.00
74086;PMS7003;62445;48.406;-4.518;2023-06-10T07:45:46;3.75;3.75;3.00
74086;PMS7003;62445;48.406;-4.518;2023-06-10T07:48:11;6.75;6.75;5.25
74086;PMS7003;62445;48.406;-4.518;2023-06-10T07:50:37;5.25;5.25;4.00
74086;PMS7003;62445;48.406;-4.518;2023-06-10T07:53:02;4.00;4.00;4.00
74086;PMS7003;62445;48.406;-4.518;2023-06-10T07:55:28;5.25;5.25;5.00
74086;PMS7003;62445;48.406;-4.518;2023-06-10T07:57:54;5.75;5.00;4.00
74086;PMS7003;62445;48.406;-4.518;2023-06-10T08:00:20;4.50;4.50;3.50
74086;PMS7003;62445;48.406;-4.518;2023-06-10T08:02:46;5.00;4.25;4.00
74086;PMS7003;62445;48.406;-4.518;2023-06-10T08:05:12;5.50;5.00;4.00
74086;PMS7003;62445;48.406;-4.518;2023-06-10T08:07:38;4.75;4.50;4.00
74086;PMS7003;62445;48.406;-4.518;2023-06-10T08:10:04;4.25;4.25;4.00
74086;PMS7003;62445;48.406;-4.518;2023-06-10T08:12:31;5.25;4.25;3.00
74086;PMS7003;62445;48.406;-4.518;2023-06-10T08:14:57;7.25;4.75;3.50
74086;PMS7003;62445;48.406;-4.518;2023-06-10T08:17:23;5.50;5.50;5.00
74086;PMS7003;62445;48.406;-4.518;2023-06-10T08:19:49;7.25;5.00;4.00
74086;PMS7003;62445;48.406;-4.518;2023-06-10T08:22:14;4.00;4.00;3.75
74086;PMS7003;62445;48.406;-4.518;2023-06-10T08:24:40;6.50;5.50;3.50
74086;PMS7003;62445;48.406;-4.518;2023-06-10T08:27:05;5.00;4.00;3.50
74086;PMS7003;62445;48.406;-4.518;2023-06-10T08:29:31;6.00;4.00;4.00
74086;PMS7003;62445;48.406;-4.518;2023-06-10T08:31:57;6.25;5.00;4.00
74086;PMS7003;62445;48.406;-4.518;2023-06-10T08:34:22;5.00;5.00;4.00
74086;PMS7003;62445;48.406;-4.518;2023-06-10T08:36:48;3.50;3.50;3.00
74086;PMS7003;62445;48.406;-4.518;2023-06-10T08:39:18;7.25;5.00;4.00
74086;PMS7003;62445;48.406;-4.518;2023-06-10T08:41:44;3.50;3.00;3.00
74086;PMS7003;62445;48.406;-4.518;2023-06-10T08:44:22;4.00;4.00;3.25
74086;PMS7003;62445;48.406;-4.518;2023-06-10T08:46:53;4.25;3.75;3.00
74086;PMS7003;62445;48.406;-4.518;2023-06-10T08:49:21;4.50;4.50;3.75
74086;PMS7003;62445;48.406;-4.518;2023-06-10T08:51:50;4.25;4.25;4.00
74086;PMS7003;62445;48.406;-4.518;2023-06-10T08:54:22;4.25;4.25;4.00
74086;PMS7003;62445;48.406;-4.518;2023-06-10T08:56:52;5.00;5.00;3.00
74086;PMS7003;62445;48.406;-4.518;2023-06-10T08:59:20;3.00;3.00;2.50
74086;PMS7003;62445;48.406;-4.518;2023-06-10T09:01:46;5.25;5.25;3.75
74086;PMS7003;62445;48.406;-4.518;2023-06-10T09:04:13;4.50;4.50;4.00
74086;PMS7003;62445;48.406;-4.518;2023-06-10T09:06:39;4.00;3.75;3.00
74086;PMS7003;62445;48.406;-4.518;2023-06-10T09:09:06;3.25;3.25;3.00
74086;PMS7003;62445;48.406;-4.518;2023-06-10T09:11:32;4.25;3.50;2.75
74086;PMS7003;62445;48.406;-4.518;2023-06-10T09:13:58;3.50;3.50;2.50
74086;PMS7003;62445;48.406;-4.518;2023-06-10T09:16:26;3.00;3.00;2.25
74086;PMS7003;62445;48.406;-4.518;2023-06-10T09:18:51;4.50;4.00;3.25
74086;PMS7003;62445;48.406;-4.518;2023-06-10T09:21:23;5.25;3.75;3.50
74086;PMS7003;62445;48.406;-4.518;2023-06-10T09:23:49;5.25;4.75;3.75
74086;PMS7003;62445;48.406;-4.518;2023-06-10T09:26:15;8.00;5.00;4.00
74086;PMS7003;62445;48.406;-4.518;2023-06-10T09:28:42;4.00;4.00;3.75
74086;PMS7003;62445;48.406;-4.518;2023-06-10T09:31:09;4.00;4.00;3.75
74086;PMS7003;62445;48.406;-4.518;2023-06-10T09:33:38;2.25;2.25;2.00
74086;PMS7003;62445;48.406;-4.518;2023-06-10T09:36:04;3.00;3.00;3.00
74086;PMS7003;62445;48.406;-4.518;2023-06-10T09:38:30;4.25;3.25;3.00
74086;PMS7003;62445;48.406;-4.518;2023-06-10T09:40:58;2.50;2.50;2.00
74086;PMS7003;62445;48.406;-4.518;2023-06-10T09:43:42;2.25;2.25;2.25
74086;PMS7003;62445;48.406;-4.518;2023-06-10T09:46:16;5.00;5.00;4.00
74086;PMS7003;62445;48.406;-4.518;2023-06-10T09:48:42;6.00;4.00;3.25
74086;PMS7003;62445;48.406;-4.518;2023-06-10T09:51:09;3.25;3.25;3.25
74086;PMS7003;62445;48.406;-4.518;2023-06-10T09:53:35;2.50;2.50;2.25
74086;PMS7003;62445;48.406;-4.518;2023-06-10T09:56:01;4.50;3.50;3.00
74086;PMS7003;62445;48.406;-4.518;2023-06-10T09:58:34;3.00;3.00;2.00
74086;PMS7003;62445;48.406;-4.518;2023-06-10T10:01:13;3.50;3.50;2.75
74086;PMS7003;62445;48.406;-4.518;2023-06-10T10:03:43;4.00;3.00;2.00
74086;PMS7003;62445;48.406;-4.518;2023-06-10T10:06:13;3.00;3.00;3.00
74086;PMS7003;62445;48.406;-4.518;2023-06-10T10:08:40;3.00;3.00;2.50
74086;PMS7003;62445;48.406;-4.518;2023-06-10T10:11:05;4.00;4.00;3.00
74086;PMS7003;62445;48.406;-4.518;2023-06-10T10:13:32;3.00;3.00;2.00
74086;PMS7003;62445;48.406;-4.518;2023-06-10T10:16:00;4.00;4.00;3.00
74086;PMS7003;62445;48.406;-4.518;2023-06-10T10:18:29;2.50;2.50;2.00
74086;PMS7003;62445;48.406;-4.518;2023-06-10T10:20:57;3.00;2.00;2.00
74086;PMS7003;62445;48.406;-4.518;2023-06-10T10:23:27;3.25;2.75;2.00
74086;PMS7003;62445;48.406;-4.518;2023-06-10T10:26:03;3.00;3.00;2.00
74086;PMS7003;62445;48.406;-4.518;2023-06-10T10:28:37;2.50;2.50;2.00
74086;PMS7003;62445;48.406;-4.518;2023-06-10T10:31:10;3.00;3.00;2.00
74086;PMS7003;62445;48.406;-4.518;2023-06-10T10:36:25;3.50;3.50;2.75
74086;PMS7003;62445;48.406;-4.518;2023-06-10T10:38:52;4.00;4.00;3.00
74086;PMS7003;62445;48.406;-4.518;2023-06-10T10:41:19;4.00;4.00;2.75
74086;PMS7003;62445;48.406;-4.518;2023-06-10T10:43:45;2.50;2.25;2.00
74086;PMS7003;62445;48.406;-4.518;2023-06-10T10:46:16;3.00;3.00;2.50
74086;PMS7003;62445;48.406;-4.518;2023-06-10T10:48:42;5.25;4.25;3.00
74086;PMS7003;62445;48.406;-4.518;2023-06-10T10:51:09;4.00;4.00;3.00
74086;PMS7003;62445;48.406;-4.518;2023-06-10T10:53:38;4.00;4.00;3.00
74086;PMS7003;62445;48.406;-4.518;2023-06-10T10:56:14;3.00;2.25;2.00
74086;PMS7003;62445;48.406;-4.518;2023-06-10T10:58:43;3.00;3.00;3.00
74086;PMS7003;62445;48.406;-4.518;2023-06-10T11:01:41;3.00;3.00;2.00
74086;PMS7003;62445;48.406;-4.518;2023-06-10T11:04:09;3.25;3.25;2.25
74086;PMS7003;62445;48.406;-4.518;2023-06-10T11:06:35;2.00;2.00;1.75
74086;PMS7003;62445;48.406;-4.518;2023-06-10T11:09:00;3.25;2.50;2.00
74086;PMS7003;62445;48.406;-4.518;2023-06-10T11:11:57;3.00;3.00;2.50
74086;PMS7003;62445;48.406;-4.518;2023-06-10T11:14:26;3.00;3.00;3.00
74086;PMS7003;62445;48.406;-4.518;2023-06-10T11:16:53;4.00;2.50;2.00
74086;PMS7003;62445;48.406;-4.518;2023-06-10T11:19:37;4.00;3.75;3.00
74086;PMS7003;62445;48.406;-4.518;2023-06-10T11:22:06;2.00;2.00;2.00
74086;PMS7003;62445;48.406;-4.518;2023-06-10T11:24:32;4.75;3.25;2.25
74086;PMS7003;62445;48.406;-4.518;2023-06-10T11:27:17;5.25;3.50;3.00
74086;PMS7003;62445;48.406;-4.518;2023-06-10T11:29:57;4.25;4.25;3.50
74086;PMS7003;62445;48.406;-4.518;2023-06-10T11:32:25;2.50;2.50;2.00
74086;PMS7003;62445;48.406;-4.518;2023-06-10T11:34:56;2.00;2.00;2.00
74086;PMS7003;62445;48.406;-4.518;2023-06-10T11:37:22;2.00;2.00;2.00
74086;PMS7003;62445;48.406;-4.518;2023-06-10T11:39:55;4.25;3.00;3.00
74086;PMS7003;62445;48.406;-4.518;2023-06-10T11:42:21;2.00;2.00;2.00
74086;PMS7003;62445;48.406;-4.518;2023-06-10T11:44:50;3.00;3.00;3.00
74086;PMS7003;62445;48.406;-4.518;2023-06-10T11:47:17;3.00;3.00;2.25
74086;PMS7003;62445;48.406;-4.518;2023-06-10T11:49:44;4.75;4.00;3.00
74086;PMS7003;62445;48.406;-4.518;2023-06-10T11:52:09;2.50;2.50;2.00
74086;PMS7003;62445;48.406;-4.518;2023-06-10T11:54:36;4.00;3.00;3.00
74086;PMS7003;62445;48.406;-4.518;2023-06-10T11:57:02;5.00;4.00;3.25
74086;PMS7003;62445;48.406;-4.518;2023-06-10T11:59:28;4.00;4.00;3.00
74086;PMS7003;62445;48.406;-4.518;2023-06-10T12:01:56;3.50;3.50;3.00
74086;PMS7003;62445;48.406;-4.518;2023-06-10T12:04:21;4.25;4.25;4.00
74086;PMS7003;62445;48.406;-4.518;2023-06-10T12:06:51;8.50;7.75;6.00
74086;PMS7003;62445;48.406;-4.518;2023-06-10T12:09:25;7.00;5.75;5.25
74086;PMS7003;62445;48.406;-4.518;2023-06-10T12:11:53;5.50;5.50;5.00
74086;PMS7003;62445;48.406;-4.518;2023-06-10T12:19:56;4.75;4.75;3.75
74086;PMS7003;62445;48.406;-4.518;2023-06-10T12:22:23;5.00;5.00;4.00
74086;PMS7003;62445;48.406;-4.518;2023-06-10T12:24:59;6.00;5.25;4.00
74086;PMS7003;62445;48.406;-4.518;2023-06-10T12:27:29;4.50;4.00;4.00
74086;PMS7003;62445;48.406;-4.518;2023-06-10T12:29:56;4.50;4.50;4.00
74086;PMS7003;62445;48.406;-4.518;2023-06-10T12:35:05;4.00;4.00;3.00
74086;PMS7003;62445;48.406;-4.518;2023-06-10T12:37:32;4.50;4.00;3.25
74086;PMS7003;62445;48.406;-4.518;2023-06-10T12:40:02;4.00;4.00;3.75
74086;PMS7003;62445;48.406;-4.518;2023-06-10T12:42:29;5.50;4.25;3.50
74086;PMS7003;62445;48.406;-4.518;2023-06-10T12:44:55;4.50;4.00;3.00
74086;PMS7003;62445;48.406;-4.518;2023-06-10T12:47:32;3.25;3.25;3.00
74086;PMS7003;62445;48.406;-4.518;2023-06-10T12:50:00;4.00;4.00;3.00
74086;PMS7003;62445;48.406;-4.518;2023-06-10T12:52:26;4.00;3.50;3.00
74086;PMS7003;62445;48.406;-4.518;2023-06-10T12:54:52;4.00;4.00;3.75
74086;PMS7003;62445;48.406;-4.518;2023-06-10T12:57:19;3.00;3.00;2.25
74086;PMS7003;62445;48.406;-4.518;2023-06-10T12:59:44;5.00;3.00;2.25
74086;PMS7003;62445;48.406;-4.518;2023-06-10T13:02:15;5.75;4.50;3.25
74086;PMS7003;62445;48.406;-4.518;2023-06-10T13:04:43;4.00;4.00;3.00
74086;PMS7003;62445;48.406;-4.518;2023-06-10T13:07:09;3.50;3.50;2.75
74086;PMS7003;62445;48.406;-4.518;2023-06-10T13:09:35;3.25;3.25;3.00
74086;PMS7003;62445;48.406;-4.518;2023-06-10T13:12:01;3.75;3.00;2.25
74086;PMS7003;62445;48.406;-4.518;2023-06-10T13:14:26;4.00;3.00;3.00
74086;PMS7003;62445;48.406;-4.518;2023-06-10T13:16:53;3.00;3.00;3.00
74086;PMS7003;62445;48.406;-4.518;2023-06-10T13:19:20;3.00;2.75;2.00
74086;PMS7003;62445;48.406;-4.518;2023-06-10T13:21:46;4.00;3.50;2.50
74086;PMS7003;62445;48.406;-4.518;2023-06-10T13:24:12;4.25;4.25;4.00
74086;PMS7003;62445;48.406;-4.518;2023-06-10T13:26:37;3.50;3.50;3.00
74086;PMS7003;62445;48.406;-4.518;2023-06-10T13:29:03;3.00;3.00;3.00
74086;PMS7003;62445;48.406;-4.518;2023-06-10T13:31:33;3.00;3.00;2.50
74086;PMS7003;62445;48.406;-4.518;2023-06-10T13:33:58;4.00;4.00;3.00
74086;PMS7003;62445;48.406;-4.518;2023-06-10T13:36:24;3.50;3.25;2.75
74086;PMS7003;62445;48.406;-4.518;2023-06-10T13:38:49;4.00;3.00;2.25
74086;PMS7003;62445;48.406;-4.518;2023-06-10T13:41:15;3.00;2.25;2.00
74086;PMS7003;62445;48.406;-4.518;2023-06-10T13:43:40;3.00;3.00;2.00
74086;PMS7003;62445;48.406;-4.518;2023-06-10T13:46:06;3.75;3.75;3.25
74086;PMS7003;62445;48.406;-4.518;2023-06-10T13:48:31;4.25;2.75;2.00
74086;PMS7003;62445;48.406;-4.518;2023-06-10T13:50:57;2.75;2.75;2.25
74086;PMS7003;62445;48.406;-4.518;2023-06-10T13:53:24;3.00;3.00;3.00
74086;PMS7003;62445;48.406;-4.518;2023-06-10T13:55:49;5.00;4.00;2.75
74086;PMS7003;62445;48.406;-4.518;2023-06-10T13:58:15;3.00;3.00;3.00
74086;PMS7003;62445;48.406;-4.518;2023-06-10T14:00:40;3.25;2.75;2.25
74086;PMS7003;62445;48.406;-4.518;2023-06-10T14:03:06;3.00;3.00;3.00
74086;PMS7003;62445;48.406;-4.518;2023-06-10T14:05:31;3.00;3.00;2.50
74086;PMS7003;62445;48.406;-4.518;2023-06-10T14:07:57;4.00;2.50;2.00
74086;PMS7003;62445;48.406;-4.518;2023-06-10T14:10:23;2.00;2.00;2.00
74086;PMS7003;62445;48.406;-4.518;2023-06-10T14:12:49;3.00;3.00;2.75
74086;PMS7003;62445;48.406;-4.518;2023-06-10T14:15:14;4.50;4.50;3.00
74086;PMS7003;62445;48.406;-4.518;2023-06-10T14:17:40;4.75;3.00;3.00
74086;PMS7003;62445;48.406;-4.518;2023-06-10T14:20:05;3.75;3.25;3.00
74086;PMS7003;62445;48.406;-4.518;2023-06-10T14:22:32;5.00;3.50;2.50